Etusivu
METAR-TAF:

METAR-TAF

Lentoasemat :

Yao, Japani

Leveyspiiri: 34-36N, Pituuspiiri: 135-36E, korkeus merenpinnasta: 10 m

Tämänhetkinen sää

Tämä raportti tehtiin 40 minuuttia sitten, kello 08.00 UTC
Tuuli 6 kn pohjoisesta, vaihdellen pohjoisen/luoteen ja pohjoisen/koillisen välillä
Lämpötila 11°C
Kosteus 54%
Ilmanpaine 1022 hPa
Näkyvyys 10 km tai enemmän
Muutamia pilviä 3000 ft:n korkeudessa
Hajanaisia pilviä 8000 ft:n korkeudessa
Pilvistä 10000 ft:n korkeudessa

METAR: RJOY 110800Z 35006KT 330V030 9999 FEW030 SCT080 OVC100 11/02 Q1022

Aika: 17:40 (08:40 UTC)


TAF: puuttuu

Säähavainnot ja -ennusteet yli 4000 lentoasemalta (METAR- ja TAF-raportit).

Käytössä olevat sääasemat on merkitty karttaan keltaisilla ja punaisilla pisteillä.

Aseta hiiri pisteen päälle nähdäksesi sääaseman nimen.

Klikkaa sitten nähdäksesi säähavainnot ja -ennusteet.

Kartan vaihtaminen: klikkaa mustalla rastilla varustettuja vihreitä pisteitä, niin voit zoomata sisään; viivalla varustettua vihreää pistettä, niin voit zoomata ulos tai vihreitä nuolia, niin pääset viereisille kartoille.


METAR-TAF: